sensor_id;sensor_type;location;lat;lon;timestamp;P1;durP1;ratioP1;P2;durP2;ratioP2
29788;SDS011;64899;42.660;23.268;2023-12-20T00:00:55;82.30;;;43.08;;
29788;SDS011;64899;42.660;23.268;2023-12-20T00:03:21;74.88;;;40.28;;
29788;SDS011;64899;42.660;23.268;2023-12-20T00:05:47;70.10;;;39.85;;
29788;SDS011;64899;42.660;23.268;2023-12-20T00:08:12;80.22;;;39.97;;
29788;SDS011;64899;42.660;23.268;2023-12-20T00:10:38;75.03;;;40.95;;
29788;SDS011;64899;42.660;23.268;2023-12-20T00:13:03;73.05;;;39.03;;
29788;SDS011;64899;42.660;23.268;2023-12-20T00:15:28;73.13;;;39.92;;
29788;SDS011;64899;42.660;23.268;2023-12-20T00:17:54;72.53;;;38.53;;
29788;SDS011;64899;42.660;23.268;2023-12-20T00:20:19;73.65;;;38.95;;
29788;SDS011;64899;42.660;23.268;2023-12-20T00:22:45;72.50;;;39.58;;
29788;SDS011;64899;42.660;23.268;2023-12-20T00:25:11;72.43;;;38.55;;
29788;SDS011;64899;42.660;23.268;2023-12-20T00:27:36;71.50;;;38.70;;
29788;SDS011;64899;42.660;23.268;2023-12-20T00:30:02;74.13;;;42.00;;
29788;SDS011;64899;42.660;23.268;2023-12-20T00:32:27;71.55;;;38.35;;
29788;SDS011;64899;42.660;23.268;2023-12-20T00:34:52;72.20;;;39.65;;
29788;SDS011;64899;42.660;23.268;2023-12-20T00:37:18;71.45;;;36.53;;
29788;SDS011;64899;42.660;23.268;2023-12-20T00:39:43;68.30;;;36.95;;
29788;SDS011;64899;42.660;23.268;2023-12-20T00:42:08;72.82;;;37.72;;
29788;SDS011;64899;42.660;23.268;2023-12-20T00:44:34;73.85;;;38.33;;
29788;SDS011;64899;42.660;23.268;2023-12-20T00:46:59;65.32;;;36.28;;
29788;SDS011;64899;42.660;23.268;2023-12-20T00:49:24;77.90;;;37.22;;
29788;SDS011;64899;42.660;23.268;2023-12-20T00:51:50;71.43;;;38.85;;
29788;SDS011;64899;42.660;23.268;2023-12-20T00:54:17;73.05;;;37.55;;
29788;SDS011;64899;42.660;23.268;2023-12-20T00:56:42;58.22;;;32.83;;
29788;SDS011;64899;42.660;23.268;2023-12-20T00:59:08;70.15;;;36.95;;
29788;SDS011;64899;42.660;23.268;2023-12-20T01:01:33;68.28;;;38.72;;
29788;SDS011;64899;42.660;23.268;2023-12-20T01:03:59;66.70;;;36.45;;
29788;SDS011;64899;42.660;23.268;2023-12-20T01:06:24;65.35;;;34.78;;
29788;SDS011;64899;42.660;23.268;2023-12-20T01:08:49;56.53;;;32.25;;
29788;SDS011;64899;42.660;23.268;2023-12-20T01:11:15;60.45;;;34.95;;
29788;SDS011;64899;42.660;23.268;2023-12-20T01:13:40;77.82;;;46.70;;
29788;SDS011;64899;42.660;23.268;2023-12-20T01:16:06;76.32;;;42.15;;
29788;SDS011;64899;42.660;23.268;2023-12-20T01:18:31;66.18;;;35.67;;
29788;SDS011;64899;42.660;23.268;2023-12-20T01:21:00;61.13;;;34.78;;
29788;SDS011;64899;42.660;23.268;2023-12-20T01:23:27;59.88;;;31.55;;
29788;SDS011;64899;42.660;23.268;2023-12-20T01:25:52;54.90;;;31.52;;
29788;SDS011;64899;42.660;23.268;2023-12-20T01:28:19;58.60;;;31.60;;
29788;SDS011;64899;42.660;23.268;2023-12-20T01:30:44;55.13;;;30.42;;
29788;SDS011;64899;42.660;23.268;2023-12-20T01:33:09;56.00;;;29.02;;
29788;SDS011;64899;42.660;23.268;2023-12-20T01:35:35;52.17;;;27.15;;
29788;SDS011;64899;42.660;23.268;2023-12-20T01:38:00;48.15;;;26.75;;
29788;SDS011;64899;42.660;23.268;2023-12-20T01:40:26;47.17;;;25.65;;
29788;SDS011;64899;42.660;23.268;2023-12-20T01:42:58;48.67;;;26.60;;
29788;SDS011;64899;42.660;23.268;2023-12-20T01:45:26;45.92;;;25.58;;
29788;SDS011;64899;42.660;23.268;2023-12-20T01:47:52;52.05;;;25.92;;
29788;SDS011;64899;42.660;23.268;2023-12-20T01:50:18;51.20;;;27.73;;
29788;SDS011;64899;42.660;23.268;2023-12-20T01:52:43;48.20;;;25.92;;
29788;SDS011;64899;42.660;23.268;2023-12-20T01:55:10;53.63;;;26.17;;
29788;SDS011;64899;42.660;23.268;2023-12-20T01:57:43;48.83;;;26.10;;
29788;SDS011;64899;42.660;23.268;2023-12-20T02:00:09;44.00;;;25.35;;
29788;SDS011;64899;42.660;23.268;2023-12-20T02:02:36;48.38;;;25.00;;
29788;SDS011;64899;42.660;23.268;2023-12-20T02:05:02;47.75;;;24.83;;
29788;SDS011;64899;42.660;23.268;2023-12-20T02:07:28;51.83;;;26.02;;
29788;SDS011;64899;42.660;23.268;2023-12-20T02:09:54;43.28;;;23.85;;
29788;SDS011;64899;42.660;23.268;2023-12-20T02:12:20;41.65;;;22.67;;
29788;SDS011;64899;42.660;23.268;2023-12-20T02:14:46;40.67;;;22.48;;
29788;SDS011;64899;42.660;23.268;2023-12-20T02:17:12;41.38;;;23.88;;
29788;SDS011;64899;42.660;23.268;2023-12-20T02:19:37;44.15;;;21.73;;
29788;SDS011;64899;42.660;23.268;2023-12-20T02:22:09;43.92;;;22.70;;
29788;SDS011;64899;42.660;23.268;2023-12-20T02:24:35;30.55;;;17.23;;
29788;SDS011;64899;42.660;23.268;2023-12-20T02:27:00;42.60;;;23.83;;
29788;SDS011;64899;42.660;23.268;2023-12-20T02:29:26;45.38;;;25.95;;
29788;SDS011;64899;42.660;23.268;2023-12-20T02:31:52;47.90;;;23.88;;
29788;SDS011;64899;42.660;23.268;2023-12-20T02:34:17;50.85;;;24.38;;
29788;SDS011;64899;42.660;23.268;2023-12-20T02:36:43;47.85;;;25.85;;
29788;SDS011;64899;42.660;23.268;2023-12-20T02:39:08;44.85;;;24.52;;
29788;SDS011;64899;42.660;23.268;2023-12-20T02:41:33;36.60;;;23.30;;
29788;SDS011;64899;42.660;23.268;2023-12-20T02:43:59;46.28;;;23.63;;
29788;SDS011;64899;42.660;23.268;2023-12-20T02:46:25;41.53;;;24.92;;
29788;SDS011;64899;42.660;23.268;2023-12-20T02:48:50;47.97;;;27.15;;
29788;SDS011;64899;42.660;23.268;2023-12-20T02:51:16;44.40;;;25.77;;
29788;SDS011;64899;42.660;23.268;2023-12-20T02:53:41;43.33;;;25.83;;
29788;SDS011;64899;42.660;23.268;2023-12-20T02:56:06;42.95;;;25.73;;
29788;SDS011;64899;42.660;23.268;2023-12-20T02:58:32;45.00;;;25.42;;
29788;SDS011;64899;42.660;23.268;2023-12-20T03:00:57;49.22;;;27.23;;
29788;SDS011;64899;42.660;23.268;2023-12-20T03:03:23;49.97;;;29.25;;
29788;SDS011;64899;42.660;23.268;2023-12-20T03:05:48;52.88;;;30.38;;
29788;SDS011;64899;42.660;23.268;2023-12-20T03:08:13;54.60;;;29.48;;
29788;SDS011;64899;42.660;23.268;2023-12-20T03:10:39;53.30;;;28.73;;
29788;SDS011;64899;42.660;23.268;2023-12-20T03:13:04;52.58;;;28.73;;
29788;SDS011;64899;42.660;23.268;2023-12-20T03:15:29;51.55;;;29.73;;
29788;SDS011;64899;42.660;23.268;2023-12-20T03:17:55;57.30;;;30.15;;
29788;SDS011;64899;42.660;23.268;2023-12-20T03:20:20;52.40;;;28.30;;
29788;SDS011;64899;42.660;23.268;2023-12-20T03:22:45;54.25;;;29.95;;
29788;SDS011;64899;42.660;23.268;2023-12-20T03:25:11;56.20;;;29.15;;
29788;SDS011;64899;42.660;23.268;2023-12-20T03:27:37;53.97;;;30.73;;
29788;SDS011;64899;42.660;23.268;2023-12-20T03:30:04;50.65;;;30.67;;
29788;SDS011;64899;42.660;23.268;2023-12-20T03:32:30;58.05;;;31.85;;
29788;SDS011;64899;42.660;23.268;2023-12-20T03:34:55;56.10;;;31.10;;
29788;SDS011;64899;42.660;23.268;2023-12-20T03:37:21;53.97;;;31.48;;
29788;SDS011;64899;42.660;23.268;2023-12-20T03:39:47;56.00;;;29.92;;
29788;SDS011;64899;42.660;23.268;2023-12-20T03:42:12;55.20;;;29.98;;
29788;SDS011;64899;42.660;23.268;2023-12-20T03:44:40;62.20;;;30.73;;
29788;SDS011;64899;42.660;23.268;2023-12-20T03:47:06;51.40;;;29.35;;
29788;SDS011;64899;42.660;23.268;2023-12-20T03:49:31;53.83;;;31.00;;
29788;SDS011;64899;42.660;23.268;2023-12-20T03:51:57;58.03;;;30.05;;
29788;SDS011;64899;42.660;23.268;2023-12-20T03:54:22;54.25;;;30.90;;
29788;SDS011;64899;42.660;23.268;2023-12-20T03:56:48;57.83;;;32.65;;
29788;SDS011;64899;42.660;23.268;2023-12-20T03:59:13;59.38;;;32.10;;
29788;SDS011;64899;42.660;23.268;2023-12-20T04:01:42;56.55;;;31.75;;
29788;SDS011;64899;42.660;23.268;2023-12-20T04:04:08;62.63;;;31.90;;
29788;SDS011;64899;42.660;23.268;2023-12-20T04:06:33;59.13;;;31.70;;
29788;SDS011;64899;42.660;23.268;2023-12-20T04:08:59;59.85;;;32.28;;
29788;SDS011;64899;42.660;23.268;2023-12-20T04:11:25;60.00;;;31.65;;
29788;SDS011;64899;42.660;23.268;2023-12-20T04:13:50;59.05;;;30.13;;
29788;SDS011;64899;42.660;23.268;2023-12-20T04:16:15;59.38;;;30.35;;
29788;SDS011;64899;42.660;23.268;2023-12-20T04:18:41;56.47;;;30.05;;
29788;SDS011;64899;42.660;23.268;2023-12-20T04:21:06;49.67;;;29.10;;
29788;SDS011;64899;42.660;23.268;2023-12-20T04:23:32;56.97;;;30.25;;
29788;SDS011;64899;42.660;23.268;2023-12-20T04:25:57;55.30;;;30.63;;
29788;SDS011;64899;42.660;23.268;2023-12-20T04:28:23;56.20;;;30.65;;
29788;SDS011;64899;42.660;23.268;2023-12-20T04:30:48;56.50;;;32.13;;
29788;SDS011;64899;42.660;23.268;2023-12-20T04:33:14;67.18;;;35.40;;
29788;SDS011;64899;42.660;23.268;2023-12-20T04:35:39;58.67;;;32.97;;
29788;SDS011;64899;42.660;23.268;2023-12-20T04:38:06;57.08;;;33.60;;
29788;SDS011;64899;42.660;23.268;2023-12-20T04:40:31;58.60;;;31.80;;
29788;SDS011;64899;42.660;23.268;2023-12-20T04:42:57;63.97;;;35.50;;
29788;SDS011;64899;42.660;23.268;2023-12-20T04:45:22;68.10;;;35.65;;
29788;SDS011;64899;42.660;23.268;2023-12-20T04:47:49;78.38;;;41.47;;
29788;SDS011;64899;42.660;23.268;2023-12-20T04:50:15;85.30;;;43.53;;
29788;SDS011;64899;42.660;23.268;2023-12-20T04:52:41;77.28;;;40.78;;
29788;SDS011;64899;42.660;23.268;2023-12-20T04:55:06;90.20;;;45.70;;
29788;SDS011;64899;42.660;23.268;2023-12-20T04:57:32;74.28;;;40.20;;
29788;SDS011;64899;42.660;23.268;2023-12-20T04:59:57;79.80;;;41.70;;
29788;SDS011;64899;42.660;23.268;2023-12-20T05:02:22;76.90;;;40.63;;
29788;SDS011;64899;42.660;23.268;2023-12-20T05:04:48;73.18;;;40.95;;
29788;SDS011;64899;42.660;23.268;2023-12-20T05:07:13;77.95;;;39.53;;
29788;SDS011;64899;42.660;23.268;2023-12-20T05:09:39;71.38;;;37.75;;
29788;SDS011;64899;42.660;23.268;2023-12-20T05:12:04;62.65;;;35.47;;
29788;SDS011;64899;42.660;23.268;2023-12-20T05:14:30;67.10;;;36.60;;
29788;SDS011;64899;42.660;23.268;2023-12-20T05:16:55;71.53;;;37.67;;
29788;SDS011;64899;42.660;23.268;2023-12-20T05:19:21;68.13;;;38.10;;
29788;SDS011;64899;42.660;23.268;2023-12-20T05:21:47;74.72;;;39.30;;
29788;SDS011;64899;42.660;23.268;2023-12-20T05:24:12;73.78;;;38.35;;
29788;SDS011;64899;42.660;23.268;2023-12-20T05:26:38;79.43;;;40.70;;
29788;SDS011;64899;42.660;23.268;2023-12-20T05:29:03;76.38;;;40.90;;
29788;SDS011;64899;42.660;23.268;2023-12-20T05:31:28;74.80;;;39.58;;
29788;SDS011;64899;42.660;23.268;2023-12-20T05:33:54;80.65;;;41.65;;
29788;SDS011;64899;42.660;23.268;2023-12-20T05:36:19;84.07;;;43.90;;
29788;SDS011;64899;42.660;23.268;2023-12-20T05:38:44;84.80;;;43.83;;
29788;SDS011;64899;42.660;23.268;2023-12-20T05:41:10;81.85;;;45.63;;
29788;SDS011;64899;42.660;23.268;2023-12-20T05:43:35;87.90;;;48.72;;
29788;SDS011;64899;42.660;23.268;2023-12-20T05:46:04;96.38;;;52.67;;
29788;SDS011;64899;42.660;23.268;2023-12-20T05:48:29;99.90;;;52.33;;
29788;SDS011;64899;42.660;23.268;2023-12-20T05:50:54;103.78;;;55.45;;
29788;SDS011;64899;42.660;23.268;2023-12-20T05:53:20;98.30;;;52.28;;
29788;SDS011;64899;42.660;23.268;2023-12-20T05:55:45;135.82;;;70.72;;
29788;SDS011;64899;42.660;23.268;2023-12-20T05:58:10;149.57;;;74.18;;
29788;SDS011;64899;42.660;23.268;2023-12-20T06:00:36;148.20;;;76.82;;
29788;SDS011;64899;42.660;23.268;2023-12-20T06:03:01;158.20;;;76.93;;
29788;SDS011;64899;42.660;23.268;2023-12-20T06:05:27;139.95;;;75.10;;
29788;SDS011;64899;42.660;23.268;2023-12-20T06:07:52;139.75;;;73.88;;
29788;SDS011;64899;42.660;23.268;2023-12-20T06:10:17;148.90;;;74.00;;
29788;SDS011;64899;42.660;23.268;2023-12-20T06:12:43;148.07;;;71.85;;
29788;SDS011;64899;42.660;23.268;2023-12-20T06:15:08;147.63;;;72.90;;
29788;SDS011;64899;42.660;23.268;2023-12-20T06:17:34;137.90;;;70.05;;
29788;SDS011;64899;42.660;23.268;2023-12-20T06:20:00;135.52;;;67.45;;
29788;SDS011;64899;42.660;23.268;2023-12-20T06:22:26;131.15;;;65.32;;
29788;SDS011;64899;42.660;23.268;2023-12-20T06:24:51;131.43;;;67.82;;
29788;SDS011;64899;42.660;23.268;2023-12-20T06:27:16;139.52;;;67.80;;
29788;SDS011;64899;42.660;23.268;2023-12-20T06:29:42;139.13;;;63.03;;
29788;SDS011;64899;42.660;23.268;2023-12-20T06:32:09;146.60;;;65.63;;
29788;SDS011;64899;42.660;23.268;2023-12-20T06:34:35;142.45;;;64.28;;
29788;SDS011;64899;42.660;23.268;2023-12-20T06:37:00;151.88;;;66.97;;
29788;SDS011;64899;42.660;23.268;2023-12-20T06:39:25;154.20;;;68.88;;
29788;SDS011;64899;42.660;23.268;2023-12-20T06:41:51;152.20;;;66.45;;
29788;SDS011;64899;42.660;23.268;2023-12-20T06:44:16;147.35;;;69.40;;
29788;SDS011;64899;42.660;23.268;2023-12-20T06:46:42;163.25;;;71.05;;
29788;SDS011;64899;42.660;23.268;2023-12-20T06:49:07;151.73;;;73.50;;
29788;SDS011;64899;42.660;23.268;2023-12-20T06:51:33;162.85;;;67.90;;
29788;SDS011;64899;42.660;23.268;2023-12-20T06:53:58;161.35;;;70.22;;
29788;SDS011;64899;42.660;23.268;2023-12-20T06:56:25;152.50;;;70.47;;
29788;SDS011;64899;42.660;23.268;2023-12-20T06:58:50;159.70;;;69.45;;
29788;SDS011;64899;42.660;23.268;2023-12-20T07:01:15;173.50;;;72.00;;
29788;SDS011;64899;42.660;23.268;2023-12-20T07:03:41;163.25;;;69.03;;
29788;SDS011;64899;42.660;23.268;2023-12-20T07:06:07;158.80;;;70.28;;
29788;SDS011;64899;42.660;23.268;2023-12-20T07:08:32;160.27;;;69.63;;
29788;SDS011;64899;42.660;23.268;2023-12-20T07:10:58;167.82;;;70.55;;
29788;SDS011;64899;42.660;23.268;2023-12-20T07:13:23;165.15;;;69.90;;
29788;SDS011;64899;42.660;23.268;2023-12-20T07:15:49;165.38;;;71.03;;
29788;SDS011;64899;42.660;23.268;2023-12-20T07:18:15;149.48;;;71.85;;
29788;SDS011;64899;42.660;23.268;2023-12-20T07:20:40;158.00;;;70.88;;
29788;SDS011;64899;42.660;23.268;2023-12-20T07:23:06;151.63;;;69.80;;
29788;SDS011;64899;42.660;23.268;2023-12-20T07:25:31;153.35;;;70.95;;
29788;SDS011;64899;42.660;23.268;2023-12-20T07:27:57;147.05;;;71.53;;
29788;SDS011;64899;42.660;23.268;2023-12-20T07:30:23;159.75;;;72.03;;
29788;SDS011;64899;42.660;23.268;2023-12-20T07:32:49;159.13;;;74.93;;
29788;SDS011;64899;42.660;23.268;2023-12-20T07:35:15;149.93;;;71.20;;
29788;SDS011;64899;42.660;23.268;2023-12-20T07:37:40;165.40;;;76.13;;
29788;SDS011;64899;42.660;23.268;2023-12-20T07:40:07;166.82;;;77.00;;
29788;SDS011;64899;42.660;23.268;2023-12-20T07:42:33;166.05;;;78.25;;
29788;SDS011;64899;42.660;23.268;2023-12-20T07:44:58;172.32;;;75.57;;
29788;SDS011;64899;42.660;23.268;2023-12-20T07:47:24;180.30;;;82.32;;
29788;SDS011;64899;42.660;23.268;2023-12-20T07:49:50;183.65;;;80.45;;
29788;SDS011;64899;42.660;23.268;2023-12-20T07:52:17;179.45;;;78.68;;
29788;SDS011;64899;42.660;23.268;2023-12-20T07:54:43;183.63;;;80.13;;
29788;SDS011;64899;42.660;23.268;2023-12-20T07:57:08;191.43;;;85.25;;
29788;SDS011;64899;42.660;23.268;2023-12-20T07:59:35;200.45;;;85.82;;
29788;SDS011;64899;42.660;23.268;2023-12-20T08:02:01;202.40;;;83.72;;
29788;SDS011;64899;42.660;23.268;2023-12-20T08:04:26;185.90;;;81.43;;
29788;SDS011;64899;42.660;23.268;2023-12-20T08:06:52;190.38;;;85.18;;
29788;SDS011;64899;42.660;23.268;2023-12-20T08:09:17;190.40;;;83.95;;
29788;SDS011;64899;42.660;23.268;2023-12-20T08:11:46;215.18;;;88.93;;
29788;SDS011;64899;42.660;23.268;2023-12-20T08:14:12;216.85;;;89.43;;
29788;SDS011;64899;42.660;23.268;2023-12-20T08:16:37;209.57;;;90.75;;
29788;SDS011;64899;42.660;23.268;2023-12-20T08:19:02;215.68;;;90.80;;
29788;SDS011;64899;42.660;23.268;2023-12-20T08:21:28;210.85;;;88.85;;
29788;SDS011;64899;42.660;23.268;2023-12-20T08:23:53;208.93;;;84.53;;
29788;SDS011;64899;42.660;23.268;2023-12-20T08:26:19;214.32;;;87.38;;
29788;SDS011;64899;42.660;23.268;2023-12-20T08:28:49;210.30;;;90.20;;
29788;SDS011;64899;42.660;23.268;2023-12-20T08:31:15;200.75;;;83.90;;
29788;SDS011;64899;42.660;23.268;2023-12-20T08:36:11;196.32;;;84.75;;
29788;SDS011;64899;42.660;23.268;2023-12-20T08:38:37;199.52;;;83.18;;
29788;SDS011;64899;42.660;23.268;2023-12-20T08:41:02;211.65;;;88.07;;
29788;SDS011;64899;42.660;23.268;2023-12-20T08:43:30;197.75;;;87.40;;
29788;SDS011;64899;42.660;23.268;2023-12-20T08:46:01;193.98;;;86.85;;
29788;SDS011;64899;42.660;23.268;2023-12-20T08:48:27;204.00;;;90.20;;
29788;SDS011;64899;42.660;23.268;2023-12-20T08:50:53;191.43;;;86.63;;
29788;SDS011;64899;42.660;23.268;2023-12-20T08:53:18;201.32;;;85.88;;
29788;SDS011;64899;42.660;23.268;2023-12-20T08:55:44;192.68;;;85.57;;
29788;SDS011;64899;42.660;23.268;2023-12-20T08:58:10;199.40;;;84.82;;
29788;SDS011;64899;42.660;23.268;2023-12-20T09:00:35;186.63;;;81.20;;
29788;SDS011;64899;42.660;23.268;2023-12-20T09:03:01;189.70;;;84.32;;
29788;SDS011;64899;42.660;23.268;2023-12-20T09:05:27;198.85;;;83.95;;
29788;SDS011;64899;42.660;23.268;2023-12-20T09:07:52;183.45;;;80.47;;
29788;SDS011;64899;42.660;23.268;2023-12-20T09:10:17;188.63;;;80.15;;
29788;SDS011;64899;42.660;23.268;2023-12-20T09:12:47;183.48;;;81.18;;
29788;SDS011;64899;42.660;23.268;2023-12-20T09:15:13;181.90;;;80.20;;
29788;SDS011;64899;42.660;23.268;2023-12-20T09:17:39;167.65;;;78.72;;
29788;SDS011;64899;42.660;23.268;2023-12-20T09:20:05;163.50;;;76.65;;
29788;SDS011;64899;42.660;23.268;2023-12-20T09:22:33;150.10;;;77.82;;
29788;SDS011;64899;42.660;23.268;2023-12-20T09:24:58;152.50;;;76.72;;
29788;SDS011;64899;42.660;23.268;2023-12-20T09:27:24;143.23;;;72.20;;
29788;SDS011;64899;42.660;23.268;2023-12-20T09:29:49;142.32;;;74.35;;
29788;SDS011;64899;42.660;23.268;2023-12-20T09:32:15;149.30;;;76.22;;
29788;SDS011;64899;42.660;23.268;2023-12-20T09:34:40;163.20;;;76.40;;
29788;SDS011;64899;42.660;23.268;2023-12-20T09:37:06;156.50;;;74.32;;
29788;SDS011;64899;42.660;23.268;2023-12-20T09:39:32;140.70;;;71.35;;
29788;SDS011;64899;42.660;23.268;2023-12-20T09:42:04;158.23;;;75.40;;
29788;SDS011;64899;42.660;23.268;2023-12-20T09:44:30;154.25;;;77.50;;
29788;SDS011;64899;42.660;23.268;2023-12-20T09:46:56;148.32;;;75.38;;
29788;SDS011;64899;42.660;23.268;2023-12-20T09:49:22;155.25;;;74.82;;
29788;SDS011;64899;42.660;23.268;2023-12-20T09:51:50;156.75;;;75.93;;
29788;SDS011;64899;42.660;23.268;2023-12-20T09:54:18;156.27;;;77.25;;
29788;SDS011;64899;42.660;23.268;2023-12-20T09:56:44;159.50;;;78.07;;
29788;SDS011;64899;42.660;23.268;2023-12-20T09:59:10;151.60;;;78.65;;
29788;SDS011;64899;42.660;23.268;2023-12-20T10:01:36;158.40;;;77.78;;
29788;SDS011;64899;42.660;23.268;2023-12-20T10:04:05;160.50;;;75.85;;
29788;SDS011;64899;42.660;23.268;2023-12-20T10:06:37;152.95;;;77.80;;
29788;SDS011;64899;42.660;23.268;2023-12-20T10:09:04;171.55;;;76.50;;
29788;SDS011;64899;42.660;23.268;2023-12-20T10:11:29;150.25;;;77.30;;
29788;SDS011;64899;42.660;23.268;2023-12-20T10:14:01;150.38;;;73.25;;
29788;SDS011;64899;42.660;23.268;2023-12-20T10:16:27;153.10;;;75.28;;
29788;SDS011;64899;42.660;23.268;2023-12-20T10:18:53;153.52;;;77.93;;
29788;SDS011;64899;42.660;23.268;2023-12-20T10:21:19;180.27;;;80.95;;
29788;SDS011;64899;42.660;23.268;2023-12-20T10:23:45;182.70;;;80.93;;
29788;SDS011;64899;42.660;23.268;2023-12-20T10:26:10;183.05;;;80.78;;
29788;SDS011;64899;42.660;23.268;2023-12-20T10:28:45;173.85;;;79.55;;
29788;SDS011;64899;42.660;23.268;2023-12-20T10:31:10;180.95;;;79.78;;
29788;SDS011;64899;42.660;23.268;2023-12-20T10:33:36;182.52;;;81.10;;
29788;SDS011;64899;42.660;23.268;2023-12-20T10:36:01;172.10;;;80.30;;
29788;SDS011;64899;42.660;23.268;2023-12-20T10:38:27;173.50;;;79.95;;
29788;SDS011;64899;42.660;23.268;2023-12-20T10:40:56;174.05;;;81.68;;
29788;SDS011;64899;42.660;23.268;2023-12-20T10:43:24;170.35;;;82.10;;
29788;SDS011;64899;42.660;23.268;2023-12-20T10:45:51;163.20;;;77.18;;
29788;SDS011;64899;42.660;23.268;2023-12-20T10:48:17;156.10;;;77.70;;
29788;SDS011;64899;42.660;23.268;2023-12-20T10:50:43;165.85;;;78.43;;
29788;SDS011;64899;42.660;23.268;2023-12-20T10:53:09;161.82;;;77.00;;
29788;SDS011;64899;42.660;23.268;2023-12-20T10:55:37;155.82;;;75.88;;
29788;SDS011;64899;42.660;23.268;2023-12-20T10:58:07;160.25;;;74.63;;
29788;SDS011;64899;42.660;23.268;2023-12-20T11:00:33;153.65;;;72.32;;
29788;SDS011;64899;42.660;23.268;2023-12-20T11:03:04;160.52;;;75.32;;
29788;SDS011;64899;42.660;23.268;2023-12-20T11:05:33;143.20;;;71.85;;
29788;SDS011;64899;42.660;23.268;2023-12-20T11:08:09;148.90;;;71.05;;
29788;SDS011;64899;42.660;23.268;2023-12-20T11:10:48;142.57;;;71.68;;
29788;SDS011;64899;42.660;23.268;2023-12-20T11:15:43;134.50;;;71.10;;
29788;SDS011;64899;42.660;23.268;2023-12-20T11:18:09;127.28;;;67.90;;
29788;SDS011;64899;42.660;23.268;2023-12-20T11:20:41;130.10;;;67.82;;
29788;SDS011;64899;42.660;23.268;2023-12-20T11:23:10;129.50;;;67.45;;
29788;SDS011;64899;42.660;23.268;2023-12-20T11:25:54;124.40;;;66.80;;
29788;SDS011;64899;42.660;23.268;2023-12-20T11:28:26;107.35;;;62.17;;
29788;SDS011;64899;42.660;23.268;2023-12-20T11:30:52;109.90;;;60.17;;
29788;SDS011;64899;42.660;23.268;2023-12-20T11:33:23;90.53;;;57.60;;
29788;SDS011;64899;42.660;23.268;2023-12-20T11:35:49;97.47;;;59.53;;
29788;SDS011;64899;42.660;23.268;2023-12-20T11:38:15;103.10;;;59.97;;
29788;SDS011;64899;42.660;23.268;2023-12-20T11:40:41;98.13;;;58.95;;
29788;SDS011;64899;42.660;23.268;2023-12-20T11:43:07;101.53;;;59.20;;
29788;SDS011;64899;42.660;23.268;2023-12-20T11:45:33;104.88;;;58.45;;
29788;SDS011;64899;42.660;23.268;2023-12-20T11:48:00;116.65;;;60.78;;
29788;SDS011;64899;42.660;23.268;2023-12-20T11:50:27;119.95;;;63.20;;
29788;SDS011;64899;42.660;23.268;2023-12-20T11:52:54;111.95;;;62.65;;
29788;SDS011;64899;42.660;23.268;2023-12-20T11:55:20;120.40;;;63.08;;
29788;SDS011;64899;42.660;23.268;2023-12-20T11:57:49;113.97;;;62.55;;
29788;SDS011;64899;42.660;23.268;2023-12-20T12:00:15;113.15;;;61.45;;
29788;SDS011;64899;42.660;23.268;2023-12-20T12:02:41;111.60;;;61.20;;
29788;SDS011;64899;42.660;23.268;2023-12-20T12:05:07;104.63;;;59.75;;
29788;SDS011;64899;42.660;23.268;2023-12-20T12:07:33;104.97;;;59.15;;
29788;SDS011;64899;42.660;23.268;2023-12-20T12:09:59;102.95;;;57.88;;
29788;SDS011;64899;42.660;23.268;2023-12-20T12:12:25;104.93;;;58.67;;
29788;SDS011;64899;42.660;23.268;2023-12-20T12:14:52;109.65;;;59.67;;
29788;SDS011;64899;42.660;23.268;2023-12-20T12:17:18;109.38;;;59.88;;
29788;SDS011;64899;42.660;23.268;2023-12-20T12:19:43;99.88;;;56.50;;
29788;SDS011;64899;42.660;23.268;2023-12-20T12:27:08;99.95;;;56.38;;
29788;SDS011;64899;42.660;23.268;2023-12-20T12:29:33;101.07;;;55.42;;
29788;SDS011;64899;42.660;23.268;2023-12-20T12:31:59;104.78;;;54.83;;
29788;SDS011;64899;42.660;23.268;2023-12-20T12:34:28;97.85;;;53.70;;
29788;SDS011;64899;42.660;23.268;2023-12-20T12:36:53;99.85;;;54.65;;
29788;SDS011;64899;42.660;23.268;2023-12-20T12:39:19;100.50;;;54.20;;
29788;SDS011;64899;42.660;23.268;2023-12-20T12:41:44;105.78;;;56.25;;
29788;SDS011;64899;42.660;23.268;2023-12-20T12:44:10;103.22;;;55.55;;
29788;SDS011;64899;42.660;23.268;2023-12-20T12:46:35;105.78;;;54.25;;
29788;SDS011;64899;42.660;23.268;2023-12-20T12:49:01;114.53;;;55.60;;
29788;SDS011;64899;42.660;23.268;2023-12-20T12:51:26;102.55;;;54.80;;
29788;SDS011;64899;42.660;23.268;2023-12-20T12:53:51;96.85;;;52.35;;
29788;SDS011;64899;42.660;23.268;2023-12-20T12:56:18;104.38;;;53.33;;
29788;SDS011;64899;42.660;23.268;2023-12-20T12:58:43;113.88;;;55.22;;
29788;SDS011;64899;42.660;23.268;2023-12-20T13:01:09;110.57;;;54.13;;
29788;SDS011;64899;42.660;23.268;2023-12-20T13:03:35;113.70;;;56.13;;
29788;SDS011;64899;42.660;23.268;2023-12-20T13:06:00;116.50;;;54.28;;
29788;SDS011;64899;42.660;23.268;2023-12-20T13:08:26;115.93;;;54.17;;
29788;SDS011;64899;42.660;23.268;2023-12-20T13:10:52;109.82;;;55.80;;
29788;SDS011;64899;42.660;23.268;2023-12-20T13:13:17;123.60;;;57.33;;
29788;SDS011;64899;42.660;23.268;2023-12-20T13:15:43;121.70;;;56.03;;
29788;SDS011;64899;42.660;23.268;2023-12-20T13:18:15;118.80;;;57.08;;
29788;SDS011;64899;42.660;23.268;2023-12-20T13:20:41;120.00;;;57.65;;
29788;SDS011;64899;42.660;23.268;2023-12-20T13:23:06;116.63;;;57.65;;
29788;SDS011;64899;42.660;23.268;2023-12-20T13:25:31;125.78;;;58.55;;
29788;SDS011;64899;42.660;23.268;2023-12-20T13:27:58;121.57;;;59.50;;
29788;SDS011;64899;42.660;23.268;2023-12-20T13:30:24;121.15;;;58.72;;
29788;SDS011;64899;42.660;23.268;2023-12-20T13:32:49;118.53;;;58.15;;
29788;SDS011;64899;42.660;23.268;2023-12-20T13:35:15;117.43;;;58.25;;
29788;SDS011;64899;42.660;23.268;2023-12-20T13:37:40;115.88;;;56.45;;
29788;SDS011;64899;42.660;23.268;2023-12-20T13:40:06;121.93;;;59.47;;
29788;SDS011;64899;42.660;23.268;2023-12-20T13:42:32;125.35;;;60.17;;
29788;SDS011;64899;42.660;23.268;2023-12-20T13:44:57;131.57;;;60.72;;
29788;SDS011;64899;42.660;23.268;2023-12-20T13:47:22;138.57;;;62.47;;
29788;SDS011;64899;42.660;23.268;2023-12-20T13:49:48;127.57;;;60.03;;
29788;SDS011;64899;42.660;23.268;2023-12-20T13:52:13;129.18;;;60.30;;
29788;SDS011;64899;42.660;23.268;2023-12-20T13:54:39;126.32;;;59.58;;
29788;SDS011;64899;42.660;23.268;2023-12-20T13:57:04;132.30;;;62.65;;
29788;SDS011;64899;42.660;23.268;2023-12-20T13:59:29;142.82;;;60.97;;
29788;SDS011;64899;42.660;23.268;2023-12-20T14:01:55;134.52;;;60.42;;
29788;SDS011;64899;42.660;23.268;2023-12-20T14:04:22;137.85;;;60.08;;